sensor_id;sensor_type;location;lat;lon;timestamp;pressure;altitude;pressure_sealevel;temperature;humidity
11525;BME280;5819;49.648;8.330;2024-03-06T00:00:02;100546.25;;;6.77;100.00
11525;BME280;5819;49.648;8.330;2024-03-06T00:02:30;100550.59;;;6.75;100.00
11525;BME280;5819;49.648;8.330;2024-03-06T00:04:58;100548.06;;;6.73;100.00
11525;BME280;5819;49.648;8.330;2024-03-06T00:07:28;100543.88;;;6.66;100.00
11525;BME280;5819;49.648;8.330;2024-03-06T00:09:56;100552.72;;;6.57;100.00
11525;BME280;5819;49.648;8.330;2024-03-06T00:12:24;100552.00;;;6.51;100.00
11525;BME280;5819;49.648;8.330;2024-03-06T00:14:52;100562.50;;;6.43;100.00
11525;BME280;5819;49.648;8.330;2024-03-06T00:17:20;100562.69;;;6.36;100.00
11525;BME280;5819;49.648;8.330;2024-03-06T00:19:47;100567.91;;;6.33;100.00
11525;BME280;5819;49.648;8.330;2024-03-06T00:22:16;100568.72;;;6.35;100.00
11525;BME280;5819;49.648;8.330;2024-03-06T00:24:50;100568.63;;;6.39;100.00
11525;BME280;5819;49.648;8.330;2024-03-06T00:27:18;100572.94;;;6.39;100.00
11525;BME280;5819;49.648;8.330;2024-03-06T00:29:46;100567.09;;;6.31;100.00
11525;BME280;5819;49.648;8.330;2024-03-06T00:32:14;100569.72;;;6.29;100.00
11525;BME280;5819;49.648;8.330;2024-03-06T00:34:42;100569.56;;;6.35;100.00
11525;BME280;5819;49.648;8.330;2024-03-06T00:37:10;100570.34;;;6.40;100.00
11525;BME280;5819;49.648;8.330;2024-03-06T00:39:37;100577.16;;;6.43;100.00
11525;BME280;5819;49.648;8.330;2024-03-06T00:42:08;100574.63;;;6.41;100.00
11525;BME280;5819;49.648;8.330;2024-03-06T00:44:37;100579.13;;;6.32;100.00
11525;BME280;5819;49.648;8.330;2024-03-06T00:47:05;100581.00;;;6.25;100.00
11525;BME280;5819;49.648;8.330;2024-03-06T00:49:33;100586.81;;;6.35;100.00
11525;BME280;5819;49.648;8.330;2024-03-06T00:52:01;100590.25;;;6.35;100.00
11525;BME280;5819;49.648;8.330;2024-03-06T00:54:30;100594.72;;;6.27;100.00
11525;BME280;5819;49.648;8.330;2024-03-06T00:56:58;100595.03;;;6.14;100.00
11525;BME280;5819;49.648;8.330;2024-03-06T00:59:27;100603.66;;;6.13;100.00
11525;BME280;5819;49.648;8.330;2024-03-06T01:01:55;100608.84;;;6.11;100.00
11525;BME280;5819;49.648;8.330;2024-03-06T01:04:23;100604.59;;;6.07;100.00
11525;BME280;5819;49.648;8.330;2024-03-06T01:06:51;100616.75;;;6.02;100.00
11525;BME280;5819;49.648;8.330;2024-03-06T01:09:19;100620.19;;;6.02;100.00
11525;BME280;5819;49.648;8.330;2024-03-06T01:11:47;100616.66;;;6.06;100.00
11525;BME280;5819;49.648;8.330;2024-03-06T01:14:15;100616.63;;;6.09;100.00
11525;BME280;5819;49.648;8.330;2024-03-06T01:16:45;100620.88;;;6.10;100.00
11525;BME280;5819;49.648;8.330;2024-03-06T01:19:13;100608.06;;;6.06;100.00
11525;BME280;5819;49.648;8.330;2024-03-06T01:21:41;100611.59;;;6.02;100.00
11525;BME280;5819;49.648;8.330;2024-03-06T01:24:09;100605.63;;;6.00;100.00
11525;BME280;5819;49.648;8.330;2024-03-06T01:26:37;100609.13;;;5.96;100.00
11525;BME280;5819;49.648;8.330;2024-03-06T01:29:05;100611.75;;;5.94;100.00
11525;BME280;5819;49.648;8.330;2024-03-06T01:31:32;100613.59;;;5.89;100.00
11525;BME280;5819;49.648;8.330;2024-03-06T01:34:02;100613.53;;;5.91;100.00
11525;BME280;5819;49.648;8.330;2024-03-06T01:36:29;100605.84;;;5.89;100.00
11525;BME280;5819;49.648;8.330;2024-03-06T01:38:58;100608.56;;;5.80;100.00
11525;BME280;5819;49.648;8.330;2024-03-06T01:41:25;100610.28;;;5.78;100.00
11525;BME280;5819;49.648;8.330;2024-03-06T01:43:54;100610.38;;;5.75;100.00
11525;BME280;5819;49.648;8.330;2024-03-06T01:46:21;100605.34;;;5.69;100.00
11525;BME280;5819;49.648;8.330;2024-03-06T01:48:49;100610.59;;;5.63;100.00
11525;BME280;5819;49.648;8.330;2024-03-06T01:51:19;100615.06;;;5.53;100.00
11525;BME280;5819;49.648;8.330;2024-03-06T01:53:47;100610.00;;;5.47;100.00
11525;BME280;5819;49.648;8.330;2024-03-06T01:56:16;100615.28;;;5.41;100.00
11525;BME280;5819;49.648;8.330;2024-03-06T01:58:46;100613.78;;;5.28;100.00
11525;BME280;5819;49.648;8.330;2024-03-06T02:01:16;100617.38;;;5.19;100.00
11525;BME280;5819;49.648;8.330;2024-03-06T02:03:45;100615.81;;;5.09;100.00
11525;BME280;5819;49.648;8.330;2024-03-06T02:06:14;100619.47;;;4.96;100.00
11525;BME280;5819;49.648;8.330;2024-03-06T02:08:47;100614.53;;;4.81;100.00
11525;BME280;5819;49.648;8.330;2024-03-06T02:11:15;100612.03;;;4.77;100.00
11525;BME280;5819;49.648;8.330;2024-03-06T02:13:44;100618.94;;;4.73;100.00
11525;BME280;5819;49.648;8.330;2024-03-06T02:16:12;100613.88;;;4.65;100.00
11525;BME280;5819;49.648;8.330;2024-03-06T02:18:51;100613.00;;;4.68;100.00
11525;BME280;5819;49.648;8.330;2024-03-06T02:21:20;100617.25;;;4.72;100.00
11525;BME280;5819;49.648;8.330;2024-03-06T02:23:50;100613.72;;;4.78;100.00
11525;BME280;5819;49.648;8.330;2024-03-06T02:26:21;100609.47;;;4.73;100.00
11525;BME280;5819;49.648;8.330;2024-03-06T02:28:50;100622.28;;;4.80;100.00
11525;BME280;5819;49.648;8.330;2024-03-06T02:31:19;100622.34;;;4.77;100.00
11525;BME280;5819;49.648;8.330;2024-03-06T02:33:48;100618.00;;;4.80;100.00
11525;BME280;5819;49.648;8.330;2024-03-06T02:36:17;100622.47;;;4.67;100.00
11525;BME280;5819;49.648;8.330;2024-03-06T02:38:47;100613.75;;;4.75;100.00
11525;BME280;5819;49.648;8.330;2024-03-06T02:41:15;100614.56;;;4.80;100.00
11525;BME280;5819;49.648;8.330;2024-03-06T02:43:44;100612.78;;;4.82;100.00
11525;BME280;5819;49.648;8.330;2024-03-06T02:46:12;100620.44;;;4.88;100.00
11525;BME280;5819;49.648;8.330;2024-03-06T02:48:40;100622.16;;;4.89;100.00
11525;BME280;5819;49.648;8.330;2024-03-06T02:51:08;100619.56;;;4.89;100.00
11525;BME280;5819;49.648;8.330;2024-03-06T02:53:35;100621.34;;;4.85;100.00
11525;BME280;5819;49.648;8.330;2024-03-06T02:56:05;100612.72;;;4.88;100.00
11525;BME280;5819;49.648;8.330;2024-03-06T02:58:35;100624.72;;;4.89;100.00
11525;BME280;5819;49.648;8.330;2024-03-06T03:01:03;100624.78;;;4.84;100.00
11525;BME280;5819;49.648;8.330;2024-03-06T03:03:31;100635.16;;;4.80;100.00
11525;BME280;5819;49.648;8.330;2024-03-06T03:05:59;100629.03;;;4.88;100.00
11525;BME280;5819;49.648;8.330;2024-03-06T03:08:27;100627.50;;;4.75;100.00
11525;BME280;5819;49.648;8.330;2024-03-06T03:10:56;100630.94;;;4.76;100.00
11525;BME280;5819;49.648;8.330;2024-03-06T03:13:25;100626.69;;;4.70;100.00
11525;BME280;5819;49.648;8.330;2024-03-06T03:15:53;100630.13;;;4.72;100.00
11525;BME280;5819;49.648;8.330;2024-03-06T03:18:21;100627.59;;;4.69;100.00
11525;BME280;5819;49.648;8.330;2024-03-06T03:20:49;100633.56;;;4.69;100.00
11525;BME280;5819;49.648;8.330;2024-03-06T03:23:17;100627.59;;;4.69;100.00
11525;BME280;5819;49.648;8.330;2024-03-06T03:25:49;100635.34;;;4.67;100.00
11525;BME280;5819;49.648;8.330;2024-03-06T03:28:17;100630.09;;;4.73;100.00
11525;BME280;5819;49.648;8.330;2024-03-06T03:30:46;100635.41;;;4.61;100.00
11525;BME280;5819;49.648;8.330;2024-03-06T03:33:13;100633.03;;;4.46;100.00
11525;BME280;5819;49.648;8.330;2024-03-06T03:35:41;100639.09;;;4.42;100.00
11525;BME280;5819;49.648;8.330;2024-03-06T03:38:10;100638.22;;;4.45;100.00
11525;BME280;5819;49.648;8.330;2024-03-06T03:40:38;100639.75;;;4.58;100.00
11525;BME280;5819;49.648;8.330;2024-03-06T03:43:06;100637.06;;;4.67;100.00
11525;BME280;5819;49.648;8.330;2024-03-06T03:45:35;100637.84;;;4.72;100.00
11525;BME280;5819;49.648;8.330;2024-03-06T03:48:05;100636.16;;;4.69;100.00
11525;BME280;5819;49.648;8.330;2024-03-06T03:50:33;100637.78;;;4.77;100.00
11525;BME280;5819;49.648;8.330;2024-03-06T03:53:01;100645.47;;;4.81;100.00
11525;BME280;5819;49.648;8.330;2024-03-06T03:55:29;100648.16;;;4.70;100.00
11525;BME280;5819;49.648;8.330;2024-03-06T03:57:57;100659.44;;;4.62;100.00
11525;BME280;5819;49.648;8.330;2024-03-06T04:00:25;100662.97;;;4.56;100.00
11525;BME280;5819;49.648;8.330;2024-03-06T04:02:53;100667.28;;;4.54;100.00
11525;BME280;5819;49.648;8.330;2024-03-06T04:05:22;100669.00;;;4.54;100.00
11525;BME280;5819;49.648;8.330;2024-03-06T04:07:50;100673.38;;;4.47;100.00
11525;BME280;5819;49.648;8.330;2024-03-06T04:10:19;100657.94;;;4.47;100.00
11525;BME280;5819;49.648;8.330;2024-03-06T04:12:47;100659.69;;;4.45;100.00
11525;BME280;5819;49.648;8.330;2024-03-06T04:15:15;100655.25;;;4.55;100.00
11525;BME280;5819;49.648;8.330;2024-03-06T04:17:44;100660.41;;;4.53;100.00
11525;BME280;5819;49.648;8.330;2024-03-06T04:20:11;100662.97;;;4.55;100.00
11525;BME280;5819;49.648;8.330;2024-03-06T04:22:41;100656.97;;;4.54;100.00
11525;BME280;5819;49.648;8.330;2024-03-06T04:25:09;100668.13;;;4.55;100.00
11525;BME280;5819;49.648;8.330;2024-03-06T04:27:37;100672.47;;;4.51;100.00
11525;BME280;5819;49.648;8.330;2024-03-06T04:30:06;100678.63;;;4.40;100.00
11525;BME280;5819;49.648;8.330;2024-03-06T04:32:34;100685.56;;;4.36;100.00
11525;BME280;5819;49.648;8.330;2024-03-06T04:35:02;100680.34;;;4.41;100.00
11525;BME280;5819;49.648;8.330;2024-03-06T04:37:30;100681.22;;;4.40;100.00
11525;BME280;5819;49.648;8.330;2024-03-06T04:40:01;100682.88;;;4.42;100.00
11525;BME280;5819;49.648;8.330;2024-03-06T04:42:35;100692.28;;;4.48;100.00
11525;BME280;5819;49.648;8.330;2024-03-06T04:45:04;100687.97;;;4.48;100.00
11525;BME280;5819;49.648;8.330;2024-03-06T04:47:36;100692.22;;;4.52;100.00
11525;BME280;5819;49.648;8.330;2024-03-06T04:50:08;100698.22;;;4.53;100.00
11525;BME280;5819;49.648;8.330;2024-03-06T04:52:37;100701.56;;;4.59;100.00
11525;BME280;5819;49.648;8.330;2024-03-06T04:55:08;100699.75;;;4.66;100.00
11525;BME280;5819;49.648;8.330;2024-03-06T04:57:38;100698.00;;;4.69;100.00
11525;BME280;5819;49.648;8.330;2024-03-06T05:00:08;100697.13;;;4.72;100.00
11525;BME280;5819;49.648;8.330;2024-03-06T05:02:37;100707.38;;;4.77;100.00
11525;BME280;5819;49.648;8.330;2024-03-06T05:05:22;100702.22;;;4.77;100.00
11525;BME280;5819;49.648;8.330;2024-03-06T05:08:08;100703.91;;;4.78;100.00
11525;BME280;5819;49.648;8.330;2024-03-06T05:10:56;100712.47;;;4.78;100.00
11525;BME280;5819;49.648;8.330;2024-03-06T05:13:41;100715.06;;;4.78;100.00
11525;BME280;5819;49.648;8.330;2024-03-06T05:16:27;100718.47;;;4.80;100.00
11525;BME280;5819;49.648;8.330;2024-03-06T05:19:14;100729.59;;;4.82;100.00
11525;BME280;5819;49.648;8.330;2024-03-06T05:21:59;100729.66;;;4.79;100.00
11525;BME280;5819;49.648;8.330;2024-03-06T05:24:45;100731.41;;;4.77;100.00
11525;BME280;5819;49.648;8.330;2024-03-06T05:27:31;100733.09;;;4.80;100.00
11525;BME280;5819;49.648;8.330;2024-03-06T05:30:17;100734.81;;;4.78;100.00
11525;BME280;5819;49.648;8.330;2024-03-06T05:33:02;100733.94;;;4.79;100.00
11525;BME280;5819;49.648;8.330;2024-03-06T05:35:47;100732.25;;;4.78;100.00
11525;BME280;5819;49.648;8.330;2024-03-06T05:38:33;100743.41;;;4.78;100.00
11525;BME280;5819;49.648;8.330;2024-03-06T05:41:18;100746.03;;;4.77;100.00
11525;BME280;5819;49.648;8.330;2024-03-06T05:44:05;100740.88;;;4.77;100.00
11525;BME280;5819;49.648;8.330;2024-03-06T05:46:50;100746.84;;;4.79;100.00
11525;BME280;5819;49.648;8.330;2024-03-06T05:49:36;100748.56;;;4.80;100.00
11525;BME280;5819;49.648;8.330;2024-03-06T05:52:21;100754.59;;;4.77;100.00
11525;BME280;5819;49.648;8.330;2024-03-06T05:55:07;100760.59;;;4.78;100.00
11525;BME280;5819;49.648;8.330;2024-03-06T05:57:52;100756.31;;;4.77;100.00
11525;BME280;5819;49.648;8.330;2024-03-06T06:00:41;100758.09;;;4.73;100.00
11525;BME280;5819;49.648;8.330;2024-03-06T06:03:09;100760.66;;;4.73;100.00
11525;BME280;5819;49.648;8.330;2024-03-06T06:05:39;100762.34;;;4.77;100.00
11525;BME280;5819;49.648;8.330;2024-03-06T06:08:07;100763.16;;;4.81;100.00
11525;BME280;5819;49.648;8.330;2024-03-06T06:10:36;100774.31;;;4.80;100.00
11525;BME280;5819;49.648;8.330;2024-03-06T06:13:04;100782.06;;;4.80;100.00
11525;BME280;5819;49.648;8.330;2024-03-06T06:15:32;100777.81;;;4.74;100.00
11525;BME280;5819;49.648;8.330;2024-03-06T06:18:01;100784.00;;;4.58;100.00
11525;BME280;5819;49.648;8.330;2024-03-06T06:20:29;100793.59;;;4.47;100.00
11525;BME280;5819;49.648;8.330;2024-03-06T06:22:57;100801.28;;;4.50;100.00
11525;BME280;5819;49.648;8.330;2024-03-06T06:25:25;100804.69;;;4.50;100.00
11525;BME280;5819;49.648;8.330;2024-03-06T06:27:53;100800.38;;;4.55;100.00
11525;BME280;5819;49.648;8.330;2024-03-06T06:30:22;100805.44;;;4.61;100.00
11525;BME280;5819;49.648;8.330;2024-03-06T06:32:49;100810.50;;;4.72;100.00
11525;BME280;5819;49.648;8.330;2024-03-06T06:35:19;100817.28;;;4.78;100.00
11525;BME280;5819;49.648;8.330;2024-03-06T06:37:47;100826.69;;;4.82;100.00
11525;BME280;5819;49.648;8.330;2024-03-06T06:40:15;100824.16;;;4.79;100.00
11525;BME280;5819;49.648;8.330;2024-03-06T06:42:44;100823.41;;;4.66;100.00
11525;BME280;5819;49.648;8.330;2024-03-06T06:45:16;100835.44;;;4.67;100.00
11525;BME280;5819;49.648;8.330;2024-03-06T06:47:45;100832.81;;;4.73;100.00
11525;BME280;5819;49.648;8.330;2024-03-06T06:50:13;100835.41;;;4.71;100.00
11525;BME280;5819;49.648;8.330;2024-03-06T06:52:43;100841.41;;;4.70;100.00
11525;BME280;5819;49.648;8.330;2024-03-06T06:55:11;100836.16;;;4.78;100.00
11525;BME280;5819;49.648;8.330;2024-03-06T06:57:39;100841.22;;;4.87;100.00
11525;BME280;5819;49.648;8.330;2024-03-06T07:00:08;100848.06;;;4.93;100.00
11525;BME280;5819;49.648;8.330;2024-03-06T07:02:39;100847.16;;;4.95;100.00
11525;BME280;5819;49.648;8.330;2024-03-06T07:05:08;100851.34;;;5.04;100.00
11525;BME280;5819;49.648;8.330;2024-03-06T07:07:37;100848.69;;;5.13;100.00
11525;BME280;5819;49.648;8.330;2024-03-06T07:10:08;100844.31;;;5.16;100.00
11525;BME280;5819;49.648;8.330;2024-03-06T07:12:36;100844.16;;;5.29;100.00
11525;BME280;5819;49.648;8.330;2024-03-06T07:15:05;100847.41;;;5.43;100.00
11525;BME280;5819;49.648;8.330;2024-03-06T07:17:33;100843.84;;;5.53;100.00
11525;BME280;5819;49.648;8.330;2024-03-06T07:20:02;100833.41;;;5.60;100.00
11525;BME280;5819;49.648;8.330;2024-03-06T07:22:32;100844.41;;;5.72;100.00
11525;BME280;5819;49.648;8.330;2024-03-06T07:25:00;100846.81;;;5.84;100.00
11525;BME280;5819;49.648;8.330;2024-03-06T07:27:30;100842.31;;;5.99;100.00
11525;BME280;5819;49.648;8.330;2024-03-06T07:29:58;100844.75;;;6.07;100.00
11525;BME280;5819;49.648;8.330;2024-03-06T07:32:25;100835.00;;;6.24;100.00
11525;BME280;5819;49.648;8.330;2024-03-06T07:34:54;100833.88;;;6.39;100.00
11525;BME280;5819;49.648;8.330;2024-03-06T07:37:22;100830.38;;;6.43;100.00
11525;BME280;5819;49.648;8.330;2024-03-06T07:39:50;100834.66;;;6.45;100.00
11525;BME280;5819;49.648;8.330;2024-03-06T07:42:19;100839.06;;;6.39;100.00
11525;BME280;5819;49.648;8.330;2024-03-06T07:44:49;100843.41;;;6.37;100.00
11525;BME280;5819;49.648;8.330;2024-03-06T07:47:17;100846.84;;;6.37;100.00
11525;BME280;5819;49.648;8.330;2024-03-06T07:49:45;100846.09;;;6.31;100.00
11525;BME280;5819;49.648;8.330;2024-03-06T07:52:13;100852.09;;;6.33;100.00
11525;BME280;5819;49.648;8.330;2024-03-06T07:54:41;100859.78;;;6.34;100.00
11525;BME280;5819;49.648;8.330;2024-03-06T07:57:09;100865.09;;;6.28;100.00
11525;BME280;5819;49.648;8.330;2024-03-06T07:59:37;100865.06;;;6.30;100.00
11525;BME280;5819;49.648;8.330;2024-03-06T08:02:06;100863.16;;;6.39;100.00
11525;BME280;5819;49.648;8.330;2024-03-06T08:04:34;100864.75;;;6.46;100.00
11525;BME280;5819;49.648;8.330;2024-03-06T08:07:03;100865.41;;;6.59;100.00
11525;BME280;5819;49.648;8.330;2024-03-06T08:09:31;100868.53;;;6.78;100.00
11525;BME280;5819;49.648;8.330;2024-03-06T08:11:59;100862.22;;;6.91;100.00
11525;BME280;5819;49.648;8.330;2024-03-06T08:14:27;100860.75;;;7.21;100.00
11525;BME280;5819;49.648;8.330;2024-03-06T08:16:55;100852.50;;;7.45;100.00
11525;BME280;5819;49.648;8.330;2024-03-06T08:19:25;100850.34;;;7.64;100.00
11525;BME280;5819;49.648;8.330;2024-03-06T08:21:54;100854.47;;;7.72;100.00
11525;BME280;5819;49.648;8.330;2024-03-06T08:24:22;100861.09;;;7.84;100.00
11525;BME280;5819;49.648;8.330;2024-03-06T08:26:51;100851.16;;;8.02;100.00
11525;BME280;5819;49.648;8.330;2024-03-06T08:29:19;100848.25;;;8.15;100.00
11525;BME280;5819;49.648;8.330;2024-03-06T08:31:48;100843.56;;;8.32;100.00
11525;BME280;5819;49.648;8.330;2024-03-06T08:34:16;100844.84;;;8.48;100.00
11525;BME280;5819;49.648;8.330;2024-03-06T08:36:46;100851.19;;;8.38;100.00
11525;BME280;5819;49.648;8.330;2024-03-06T08:39:14;100854.53;;;8.41;100.00
11525;BME280;5819;49.648;8.330;2024-03-06T08:41:43;100842.47;;;8.73;100.00
11525;BME280;5819;49.648;8.330;2024-03-06T08:44:11;100845.31;;;8.64;100.00
11525;BME280;5819;49.648;8.330;2024-03-06T08:46:38;100849.41;;;8.72;100.00
11525;BME280;5819;49.648;8.330;2024-03-06T08:49:06;100857.41;;;8.63;100.00
11525;BME280;5819;49.648;8.330;2024-03-06T08:51:36;100856.19;;;8.78;100.00
11525;BME280;5819;49.648;8.330;2024-03-06T08:54:06;100861.38;;;8.78;100.00
11525;BME280;5819;49.648;8.330;2024-03-06T08:56:40;100861.16;;;8.85;100.00
11525;BME280;5819;49.648;8.330;2024-03-06T08:59:10;100868.50;;;9.01;100.00
11525;BME280;5819;49.648;8.330;2024-03-06T09:01:38;100855.69;;;9.25;100.00
11525;BME280;5819;49.648;8.330;2024-03-06T09:04:06;100849.91;;;9.45;100.00
11525;BME280;5819;49.648;8.330;2024-03-06T09:06:33;100854.88;;;9.80;100.00
11525;BME280;5819;49.648;8.330;2024-03-06T09:09:01;100852.38;;;10.05;100.00
11525;BME280;5819;49.648;8.330;2024-03-06T09:11:33;100848.56;;;10.17;100.00
11525;BME280;5819;49.648;8.330;2024-03-06T09:14:01;100848.97;;;10.31;98.17
11525;BME280;5819;49.648;8.330;2024-03-06T09:16:31;100841.91;;;10.35;95.88
11525;BME280;5819;49.648;8.330;2024-03-06T09:19:00;100852.22;;;10.10;97.79
11525;BME280;5819;49.648;8.330;2024-03-06T09:21:28;100848.09;;;10.30;98.73
11525;BME280;5819;49.648;8.330;2024-03-06T09:23:56;100844.91;;;10.47;96.63
11525;BME280;5819;49.648;8.330;2024-03-06T09:26:24;100826.19;;;11.10;93.24
11525;BME280;5819;49.648;8.330;2024-03-06T09:28:53;100817.22;;;11.41;91.68
11525;BME280;5819;49.648;8.330;2024-03-06T09:31:21;100814.22;;;11.28;90.94
11525;BME280;5819;49.648;8.330;2024-03-06T09:33:50;100831.03;;;11.19;90.45
11525;BME280;5819;49.648;8.330;2024-03-06T09:36:18;100824.91;;;11.44;90.19
11525;BME280;5819;49.648;8.330;2024-03-06T09:38:46;100835.75;;;10.87;91.74
11525;BME280;5819;49.648;8.330;2024-03-06T09:41:14;100845.16;;;10.66;93.98
11525;BME280;5819;49.648;8.330;2024-03-06T09:43:43;100843.88;;;10.77;92.87
11525;BME280;5819;49.648;8.330;2024-03-06T09:46:12;100842.81;;;10.83;92.92
11525;BME280;5819;49.648;8.330;2024-03-06T09:48:45;100849.09;;;11.01;93.58
11525;BME280;5819;49.648;8.330;2024-03-06T09:51:13;100829.28;;;11.65;91.86
11525;BME280;5819;49.648;8.330;2024-03-06T09:53:41;100820.31;;;11.73;89.59
11525;BME280;5819;49.648;8.330;2024-03-06T09:56:10;100828.53;;;11.63;88.46
11525;BME280;5819;49.648;8.330;2024-03-06T09:58:38;100832.72;;;11.67;87.29
11525;BME280;5819;49.648;8.330;2024-03-06T10:01:07;100845.56;;;11.26;90.32
11525;BME280;5819;49.648;8.330;2024-03-06T10:03:37;100851.38;;;11.10;90.79
11525;BME280;5819;49.648;8.330;2024-03-06T10:06:07;100850.81;;;11.02;92.08
11525;BME280;5819;49.648;8.330;2024-03-06T10:08:42;100860.88;;;10.63;91.77
11525;BME280;5819;49.648;8.330;2024-03-06T10:11:11;100864.31;;;10.39;93.09
11525;BME280;5819;49.648;8.330;2024-03-06T10:13:39;100861.97;;;10.56;94.81
11525;BME280;5819;49.648;8.330;2024-03-06T10:16:07;100858.03;;;10.69;93.60
11525;BME280;5819;49.648;8.330;2024-03-06T10:18:39;100867.91;;;10.59;95.30
11525;BME280;5819;49.648;8.330;2024-03-06T10:21:08;100869.31;;;10.69;96.40
11525;BME280;5819;49.648;8.330;2024-03-06T10:23:35;100863.53;;;10.86;95.60
11525;BME280;5819;49.648;8.330;2024-03-06T10:26:06;100853.41;;;11.25;94.15
11525;BME280;5819;49.648;8.330;2024-03-06T10:28:35;100855.84;;;11.06;93.84
11525;BME280;5819;49.648;8.330;2024-03-06T10:31:04;100854.66;;;11.15;94.35
11525;BME280;5819;49.648;8.330;2024-03-06T10:33:34;100850.59;;;11.31;92.46
11525;BME280;5819;49.648;8.330;2024-03-06T10:36:10;100850.22;;;11.40;92.36
11525;BME280;5819;49.648;8.330;2024-03-06T10:38:43;100859.88;;;11.38;92.19
11525;BME280;5819;49.648;8.330;2024-03-06T10:41:14;100844.66;;;11.72;91.95
11525;BME280;5819;49.648;8.330;2024-03-06T10:43:47;100843.22;;;11.87;90.46
11525;BME280;5819;49.648;8.330;2024-03-06T10:46:19;100851.47;;;11.98;91.07
11525;BME280;5819;49.648;8.330;2024-03-06T10:48:48;100854.69;;;11.60;89.20
11525;BME280;5819;49.648;8.330;2024-03-06T10:51:18;100855.13;;;11.71;90.09
11525;BME280;5819;49.648;8.330;2024-03-06T10:53:48;100865.94;;;11.39;91.68
11525;BME280;5819;49.648;8.330;2024-03-06T10:56:18;100848.22;;;11.70;89.04
11525;BME280;5819;49.648;8.330;2024-03-06T10:58:50;100854.72;;;11.82;89.65
11525;BME280;5819;49.648;8.330;2024-03-06T11:01:19;100849.03;;;11.72;89.15
11525;BME280;5819;49.648;8.330;2024-03-06T11:03:47;100844.16;;;12.48;89.24
11525;BME280;5819;49.648;8.330;2024-03-06T11:06:15;100819.69;;;13.66;85.56
11525;BME280;5819;49.648;8.330;2024-03-06T11:08:46;100807.63;;;13.64;80.48
11525;BME280;5819;49.648;8.330;2024-03-06T11:11:22;100808.72;;;13.77;81.14
11525;BME280;5819;49.648;8.330;2024-03-06T11:13:54;100832.13;;;12.85;84.57
11525;BME280;5819;49.648;8.330;2024-03-06T11:16:28;100833.84;;;12.65;83.08
11525;BME280;5819;49.648;8.330;2024-03-06T11:19:07;100829.19;;;12.52;83.24
11525;BME280;5819;49.648;8.330;2024-03-06T11:21:45;100845.53;;;12.57;85.61
11525;BME280;5819;49.648;8.330;2024-03-06T11:24:19;100834.09;;;12.80;83.95
11525;BME280;5819;49.648;8.330;2024-03-06T11:26:48;100829.09;;;12.75;81.82
11525;BME280;5819;49.648;8.330;2024-03-06T11:29:17;100841.34;;;12.53;82.18
11525;BME280;5819;49.648;8.330;2024-03-06T11:32:01;100839.00;;;12.47;82.12
11525;BME280;5819;49.648;8.330;2024-03-06T11:34:30;100825.09;;;12.66;81.17
11525;BME280;5819;49.648;8.330;2024-03-06T11:36:58;100831.69;;;12.75;81.65
11525;BME280;5819;49.648;8.330;2024-03-06T11:39:33;100823.81;;;13.16;82.66
11525;BME280;5819;49.648;8.330;2024-03-06T11:42:03;100821.34;;;13.50;80.18
11525;BME280;5819;49.648;8.330;2024-03-06T11:44:35;100814.78;;;13.77;80.02
11525;BME280;5819;49.648;8.330;2024-03-06T11:47:05;100817.59;;;13.37;78.87
11525;BME280;5819;49.648;8.330;2024-03-06T11:49:35;100832.84;;;12.88;81.07
11525;BME280;5819;49.648;8.330;2024-03-06T11:52:06;100830.47;;;13.02;82.13
11525;BME280;5819;49.648;8.330;2024-03-06T11:54:37;100833.66;;;13.09;82.25
11525;BME280;5819;49.648;8.330;2024-03-06T11:57:05;100836.44;;;13.25;81.66
11525;BME280;5819;49.648;8.330;2024-03-06T11:59:34;100823.03;;;13.13;79.86
11525;BME280;5819;49.648;8.330;2024-03-06T12:02:06;100811.38;;;13.21;79.49
11525;BME280;5819;49.648;8.330;2024-03-06T12:04:36;100825.28;;;13.21;78.87
11525;BME280;5819;49.648;8.330;2024-03-06T12:07:06;100818.88;;;12.89;78.96
11525;BME280;5819;49.648;8.330;2024-03-06T12:09:38;100824.78;;;12.54;80.06
11525;BME280;5819;49.648;8.330;2024-03-06T12:12:09;100839.44;;;12.56;82.54
11525;BME280;5819;49.648;8.330;2024-03-06T12:14:39;100843.06;;;12.54;80.62
11525;BME280;5819;49.648;8.330;2024-03-06T12:17:12;100848.25;;;12.34;82.21
11525;BME280;5819;49.648;8.330;2024-03-06T12:19:42;100856.41;;;12.04;82.41
11525;BME280;5819;49.648;8.330;2024-03-06T12:22:11;100859.22;;;11.78;83.14
11525;BME280;5819;49.648;8.330;2024-03-06T12:24:41;100859.91;;;11.83;82.67
11525;BME280;5819;49.648;8.330;2024-03-06T12:27:09;100862.94;;;11.94;85.28
11525;BME280;5819;49.648;8.330;2024-03-06T12:29:37;100853.84;;;12.25;85.21
11525;BME280;5819;49.648;8.330;2024-03-06T12:32:15;100853.25;;;11.96;84.04
11525;BME280;5819;49.648;8.330;2024-03-06T12:34:45;100855.66;;;12.02;85.64
11525;BME280;5819;49.648;8.330;2024-03-06T12:37:28;100852.09;;;12.25;84.58
11525;BME280;5819;49.648;8.330;2024-03-06T12:40:02;100841.97;;;12.17;82.95
11525;BME280;5819;49.648;8.330;2024-03-06T12:42:32;100845.88;;;12.07;82.84
11525;BME280;5819;49.648;8.330;2024-03-06T12:45:00;100846.50;;;12.34;83.50
11525;BME280;5819;49.648;8.330;2024-03-06T12:47:30;100843.69;;;12.39;81.65
11525;BME280;5819;49.648;8.330;2024-03-06T12:49:58;100827.34;;;12.55;81.04
11525;BME280;5819;49.648;8.330;2024-03-06T12:52:26;100840.81;;;12.45;81.56
11525;BME280;5819;49.648;8.330;2024-03-06T12:54:54;100841.19;;;12.36;81.19
11525;BME280;5819;49.648;8.330;2024-03-06T12:57:24;100835.03;;;12.38;80.50
11525;BME280;5819;49.648;8.330;2024-03-06T12:59:52;100836.44;;;12.25;80.45
11525;BME280;5819;49.648;8.330;2024-03-06T13:02:20;100838.34;;;12.22;82.03
11525;BME280;5819;49.648;8.330;2024-03-06T13:04:48;100834.97;;;12.19;81.98
11525;BME280;5819;49.648;8.330;2024-03-06T13:07:15;100839.75;;;12.08;82.77
11525;BME280;5819;49.648;8.330;2024-03-06T13:09:43;100840.03;;;12.23;83.06
11525;BME280;5819;49.648;8.330;2024-03-06T13:12:11;100834.56;;;12.49;82.18
11525;BME280;5819;49.648;8.330;2024-03-06T13:14:41;100838.13;;;12.06;81.31